Time;durP1;ratioP1;P1;durP2;ratioP2;P2;SDS_P1;SDS_P2;PMS_P1;PMS_P2;Temp;Humidity;BMP_temperature;BMP_pressure;BME280_temperature;BME280_humidity;BME280_pressure;Samples;Min_cycle;Max_cycle;Signal;HPM_P1;HPM_P2
2022/05/14 00:01:16;;;;;;;6.20;5.10;;;14.00;1.00;;;;;;6184135;28;20324;-55
2022/05/14 00:04:21;;;;;;;8.37;5.33;;;13.90;1.00;;;;;;6183785;28;20748;-55
2022/05/14 00:07:26;;;;;;;7.13;5.70;;;13.90;1.00;;;;;;6186428;28;20243;-54
2022/05/14 00:13:03;;;;;;;5.50;5.10;;;13.90;1.00;;;;;;6181031;28;21072;-55
2022/05/14 00:14:03;;;;;;;5.40;4.90;;;13.90;1.00;;;;;;6182319;28;20284;-54
2022/05/14 00:17:07;;;;;;;6.13;5.63;;;13.90;1.00;;;;;;6174949;28;20322;-55
2022/05/14 00:20:12;;;;;;;5.97;5.57;;;13.80;1.00;;;;;;6161545;28;20244;-56
2022/05/14 00:23:15;;;;;;;5.83;5.60;;;13.90;1.00;;;;;;6157674;28;20241;-55
2022/05/14 00:26:21;;;;;;;6.27;5.87;;;13.80;1.00;;;;;;6155791;28;20327;-55
2022/05/14 00:29:24;;;;;;;8.93;5.97;;;13.90;1.00;;;;;;6157285;28;20241;-55
2022/05/14 00:32:28;;;;;;;5.93;5.30;;;13.80;1.00;;;;;;6160583;28;20319;-56
2022/05/14 00:35:31;;;;;;;5.77;5.40;;;13.70;1.00;;;;;;6188334;28;20235;-55
2022/05/14 00:38:35;;;;;;;6.17;5.57;;;13.70;1.00;;;;;;6198591;28;20318;-55
2022/05/14 00:41:39;;;;;;;6.10;5.60;;;13.70;1.00;;;;;;6180752;28;20239;-54
2022/05/14 00:44:42;;;;;;;7.13;6.00;;;13.70;1.00;;;;;;6170077;28;20986;-55
2022/05/14 00:47:51;;;;;;;6.20;5.60;;;13.60;1.00;;;;;;6164308;28;20239;-55
2022/05/14 00:50:58;;;;;;;6.73;6.03;;;13.60;1.00;;;;;;6180296;28;20244;-55
2022/05/14 00:54:07;;;;;;;5.87;5.53;;;13.60;1.00;;;;;;6168484;28;20289;-56
2022/05/14 00:57:13;;;;;;;6.37;5.73;;;13.50;1.00;;;;;;6153935;28;20236;-56
2022/05/14 01:00:19;;;;;;;10.30;6.30;;;13.50;1.00;;;;;;6158040;28;20240;-56
2022/05/14 01:03:23;;;;;;;6.10;5.60;;;13.50;1.00;;;;;;6170464;28;20235;-55
2022/05/14 01:06:28;;;;;;;6.10;5.30;;;13.50;1.00;;;;;;6196914;28;20330;-54
2022/05/14 01:09:32;;;;;;;6.57;5.97;;;13.60;1.00;;;;;;6159429;28;20457;-53
2022/05/14 01:12:44;;;;;;;6.17;5.63;;;13.50;1.00;;;;;;6177868;28;20259;-54
2022/05/14 01:15:50;;;;;;;6.10;5.57;;;13.60;1.00;;;;;;6173636;28;20330;-56
2022/05/14 01:18:54;;;;;;;6.33;5.80;;;13.60;1.00;;;;;;6173511;28;20396;-55
2022/05/14 01:22:08;;;;;;;5.57;5.27;;;13.60;1.00;;;;;;6157034;28;20291;-55
2022/05/14 01:28:46;;;;;;;6.83;6.00;;;13.60;1.00;;;;;;6161201;28;20272;-55
2022/05/14 01:31:51;;;;;;;6.43;5.83;;;13.60;1.00;;;;;;6175149;28;20263;-55
2022/05/14 01:34:54;;;;;;;10.17;6.63;;;13.60;1.00;;;;;;6190038;28;20228;-55
2022/05/14 01:37:56;;;;;;;7.13;5.40;;;13.70;1.00;;;;;;6186087;28;20311;-54
2022/05/14 01:41:09;;;;;;;8.37;6.17;;;13.70;1.00;;;;;;6178587;28;20342;-55
2022/05/14 01:44:13;;;;;;;9.23;5.80;;;13.60;1.00;;;;;;6174530;28;21099;-54
2022/05/14 01:47:16;;;;;;;8.80;5.43;;;13.70;1.00;;;;;;6159294;28;20244;-54
2022/05/14 01:50:19;;;;;;;6.67;5.83;;;13.70;1.00;;;;;;6180374;28;20875;-54
2022/05/14 01:53:22;;;;;;;10.97;6.23;;;13.70;1.00;;;;;;6177775;28;20667;-55
2022/05/14 01:56:25;;;;;;;5.53;5.03;;;13.70;1.00;;;;;;6154457;28;20318;-54
2022/05/14 01:59:29;;;;;;;6.17;5.73;;;13.70;1.00;;;;;;6154194;28;20236;-55
2022/05/14 02:02:31;;;;;;;6.20;5.63;;;13.60;1.00;;;;;;6154944;28;20379;-54
2022/05/14 02:05:34;;;;;;;6.53;5.93;;;13.70;1.00;;;;;;6180769;28;20476;-55
2022/05/14 02:08:37;;;;;;;6.43;5.83;;;13.70;1.00;;;;;;6184486;28;20398;-55
2022/05/14 02:11:42;;;;;;;7.37;5.43;;;13.70;1.00;;;;;;6170583;28;20500;-55
2022/05/14 02:14:46;;;;;;;6.13;5.20;;;13.70;1.00;;;;;;6156258;28;20296;-54
2022/05/14 02:17:49;;;;;;;5.50;5.20;;;13.70;1.00;;;;;;6145414;28;20255;-55
2022/05/14 02:20:52;;;;;;;8.27;5.40;;;13.70;1.00;;;;;;6154393;28;20335;-55
2022/05/14 02:23:55;;;;;;;6.00;5.53;;;13.70;1.00;;;;;;6158553;28;20225;-55
2022/05/14 02:26:58;;;;;;;8.97;5.07;;;13.70;1.00;;;;;;6181883;28;20710;-55
2022/05/14 02:30:03;;;;;;;6.17;4.97;;;13.80;1.00;;;;;;6179118;28;20334;-55
2022/05/14 02:33:06;;;;;;;6.37;4.73;;;13.70;1.00;;;;;;6178118;28;20292;-55
2022/05/14 02:36:10;;;;;;;5.10;4.70;;;13.80;1.00;;;;;;6185734;28;20322;-55
2022/05/14 02:39:12;;;;;;;7.37;4.80;;;13.80;1.00;;;;;;6183815;28;20268;-55
2022/05/14 02:42:16;;;;;;;4.97;4.60;;;13.80;1.00;;;;;;6167066;28;20531;-56
2022/05/14 02:45:21;;;;;;;5.03;4.63;;;13.80;1.00;;;;;;6156204;28;20239;-56
2022/05/14 02:48:24;;;;;;;6.10;4.50;;;13.80;1.00;;;;;;6165337;28;20739;-54
2022/05/14 02:51:27;;;;;;;5.23;4.33;;;13.80;1.00;;;;;;6178527;28;20258;-54
2022/05/14 02:54:29;;;;;;;9.47;4.80;;;13.80;1.00;;;;;;6157126;28;20498;-56
2022/05/14 02:57:32;;;;;;;5.73;4.50;;;13.80;1.00;;;;;;6151101;28;20378;-56
2022/05/14 03:00:36;;;;;;;11.07;5.20;;;13.80;1.00;;;;;;6155150;28;20327;-54
2022/05/14 03:03:39;;;;;;;5.70;4.37;;;13.80;1.00;;;;;;6172937;28;20451;-55
2022/05/14 03:06:42;;;;;;;9.13;4.97;;;13.80;1.00;;;;;;6193827;28;20283;-54
2022/05/14 03:09:45;;;;;;;5.83;4.80;;;13.80;1.00;;;;;;6182512;28;20313;-55
2022/05/14 03:12:48;;;;;;;4.83;4.47;;;13.80;1.00;;;;;;6160287;28;20290;-55
2022/05/14 03:15:52;;;;;;;5.00;4.63;;;13.80;1.00;;;;;;6163948;28;20362;-54
2022/05/14 03:18:54;;;;;;;4.97;4.47;;;13.70;1.00;;;;;;6176094;28;20382;-55
2022/05/14 03:21:57;;;;;;;5.53;4.67;;;13.70;1.00;;;;;;6162213;28;20813;-54
2022/05/14 03:25:00;;;;;;;4.87;4.43;;;13.70;1.00;;;;;;6158545;28;20769;-55
2022/05/14 03:28:03;;;;;;;5.70;5.07;;;13.60;1.00;;;;;;6156892;28;20609;-54
2022/05/14 03:31:07;;;;;;;5.63;4.53;;;13.60;1.00;;;;;;6159436;28;20339;-54
2022/05/14 03:34:11;;;;;;;6.40;4.77;;;13.60;1.00;;;;;;6182267;28;20228;-56
2022/05/14 03:37:14;;;;;;;5.43;5.03;;;13.50;1.00;;;;;;6196797;28;20703;-53
2022/05/14 03:40:17;;;;;;;8.10;4.83;;;13.50;1.00;;;;;;6180603;28;20781;-54
2022/05/14 03:43:19;;;;;;;7.77;4.80;;;13.40;1.00;;;;;;6155878;28;20296;-54
2022/05/14 03:46:24;;;;;;;5.30;4.80;;;13.50;1.00;;;;;;6181669;28;20231;-56
2022/05/14 03:49:27;;;;;;;8.63;5.07;;;13.40;1.00;;;;;;6178142;28;20294;-56
2022/05/14 03:52:29;;;;;;;4.93;4.53;;;13.40;1.00;;;;;;6180022;28;20313;-55
2022/05/14 03:55:32;;;;;;;5.17;4.77;;;13.30;1.00;;;;;;6182057;28;20499;-54
2022/05/14 03:58:35;;;;;;;5.27;4.30;;;13.40;1.00;;;;;;6161218;28;20599;-55
2022/05/14 04:01:45;;;;;;;10.03;4.90;;;13.30;1.00;;;;;;6162358;28;20422;-54
2022/05/14 04:04:48;;;;;;;5.67;5.13;;;13.30;1.00;;;;;;6180114;28;20240;-54
2022/05/14 04:08:05;;;;;;;6.63;5.27;;;13.30;1.00;;;;;;6174425;28;20870;-56
2022/05/14 04:11:08;;;;;;;9.40;5.27;;;13.30;1.00;;;;;;6180794;28;20331;-54
2022/05/14 04:14:13;;;;;;;5.87;5.30;;;13.30;1.00;;;;;;6184461;28;20236;-55
2022/05/14 04:17:17;;;;;;;5.70;5.30;;;13.30;1.00;;;;;;6146986;28;20747;-55
2022/05/14 04:20:21;;;;;;;7.20;4.90;;;13.20;1.00;;;;;;6151705;28;20237;-54
2022/05/14 04:23:28;;;;;;;6.30;5.70;;;13.20;1.00;;;;;;6188722;28;20236;-56
2022/05/14 04:26:31;;;;;;;5.43;5.10;;;13.20;1.00;;;;;;6152966;28;20265;-55
2022/05/14 04:29:34;;;;;;;6.00;5.03;;;13.20;1.00;;;;;;6167498;28;20256;-55
2022/05/14 04:32:39;;;;;;;5.37;4.90;;;13.30;1.00;;;;;;6184683;28;20685;-55
2022/05/14 04:35:41;;;;;;;7.07;5.50;;;13.40;1.00;;;;;;6154777;28;20244;-55
2022/05/14 04:38:44;;;;;;;6.17;5.00;;;13.40;1.00;;;;;;6153395;28;20327;-56
2022/05/14 04:41:48;;;;;;;6.40;5.40;;;13.50;1.00;;;;;;6175785;28;20738;-55
2022/05/14 04:44:50;;;;;;;5.73;5.20;;;13.50;1.00;;;;;;6176899;28;20374;-56
2022/05/14 04:47:54;;;;;;;5.57;5.00;;;13.50;1.00;;;;;;6178867;28;20239;-56
2022/05/14 04:50:57;;;;;;;5.37;5.00;;;13.60;1.00;;;;;;6176965;28;20244;-55
2022/05/14 04:54:00;;;;;;;6.87;5.83;;;13.60;1.00;;;;;;6174943;28;20285;-57
2022/05/14 04:57:03;;;;;;;5.57;5.07;;;13.70;1.00;;;;;;6183194;28;20253;-54
2022/05/14 05:00:07;;;;;;;9.57;5.10;;;13.80;1.00;;;;;;6181131;28;20350;-55
2022/05/14 05:03:18;;;;;;;7.33;4.90;;;13.90;1.00;;;;;;6185507;28;20744;-56
2022/05/14 05:06:24;;;;;;;9.43;4.93;;;14.10;1.00;;;;;;6176339;28;20322;-55
2022/05/14 05:09:26;;;;;;;7.97;6.10;;;14.20;1.00;;;;;;6186150;28;20366;-56
2022/05/14 05:12:30;;;;;;;10.10;6.07;;;14.40;1.00;;;;;;6190598;28;20391;-55
2022/05/14 05:15:32;;;;;;;6.87;5.33;;;14.50;1.00;;;;;;6169945;28;20246;-53
2022/05/14 05:18:38;;;;;;;8.57;4.87;;;14.70;1.00;;;;;;6157887;28;20277;-55
2022/05/14 05:21:40;;;;;;;11.10;4.87;;;14.80;1.00;;;;;;6188659;28;20281;-55
2022/05/14 05:24:46;;;;;;;5.47;4.80;;;15.00;1.00;;;;;;6181411;28;20334;-55
2022/05/14 05:27:48;;;;;;;6.80;4.53;;;15.20;1.00;;;;;;6174922;28;20750;-49
2022/05/14 05:30:51;;;;;;;8.13;4.23;;;15.20;1.00;;;;;;6182411;28;20853;-55
2022/05/14 05:33:55;;;;;;;6.77;4.90;;;15.50;1.00;;;;;;6184395;28;20382;-56
2022/05/14 05:36:58;;;;;;;7.70;4.97;;;15.60;1.00;;;;;;6194902;28;20247;-55
2022/05/14 05:40:01;;;;;;;6.43;4.47;;;15.70;1.00;;;;;;6190849;28;20266;-55
2022/05/14 05:43:05;;;;;;;6.57;4.40;;;15.90;1.00;;;;;;6175456;28;20330;-54
2022/05/14 05:46:09;;;;;;;5.43;4.27;;;16.20;1.00;;;;;;6173677;28;20267;-56
2022/05/14 05:49:14;;;;;;;4.93;4.40;;;16.40;1.00;;;;;;6175246;28;20541;-54
2022/05/14 05:52:16;;;;;;;4.93;4.23;;;16.40;1.00;;;;;;6181127;28;20379;-54
2022/05/14 05:58:40;;;;;;;7.23;4.47;;;16.80;1.00;;;;;;6179668;28;20705;-56
2022/05/14 06:01:42;;;;;;;4.17;3.67;;;16.90;1.00;;;;;;6180250;28;20654;-56
2022/05/14 06:04:47;;;;;;;5.47;4.07;;;17.10;1.00;;;;;;6184345;28;20236;-56
2022/05/14 06:07:50;;;;;;;5.77;4.00;;;17.10;1.00;;;;;;6176987;28;20313;-56
2022/05/14 06:10:54;;;;;;;10.33;4.10;;;17.00;1.00;;;;;;6185601;28;20653;-54
2022/05/14 06:13:56;;;;;;;8.77;4.23;;;17.10;1.00;;;;;;6197147;28;20343;-56
2022/05/14 06:17:00;;;;;;;6.03;4.37;;;16.90;1.00;;;;;;6177897;28;20552;-56
2022/05/14 06:20:06;;;;;;;4.53;4.17;;;16.70;1.00;;;;;;6185557;28;20370;-56
2022/05/14 06:23:09;;;;;;;7.27;4.30;;;16.60;1.00;;;;;;6191260;28;20224;-54
2022/05/14 06:26:12;;;;;;;10.77;4.47;;;16.50;1.00;;;;;;6192949;28;20612;-54
2022/05/14 06:29:15;;;;;;;6.30;4.30;;;16.40;1.00;;;;;;6188205;28;20301;-54
2022/05/14 06:32:17;;;;;;;7.27;5.00;;;16.30;1.00;;;;;;6178083;28;20251;-55
2022/05/14 06:35:22;;;;;;;6.10;4.33;;;16.20;1.00;;;;;;6183288;28;20295;-53
2022/05/14 06:38:24;;;;;;;6.60;4.90;;;16.10;1.00;;;;;;6188269;28;20386;-54
2022/05/14 06:41:27;;;;;;;10.87;4.47;;;16.10;1.00;;;;;;6183375;28;20278;-54
2022/05/14 06:44:30;;;;;;;8.13;4.60;;;16.10;1.00;;;;;;6188310;28;20537;-55
2022/05/14 06:47:33;;;;;;;10.60;4.60;;;16.30;1.00;;;;;;6180572;28;20273;-55
2022/05/14 06:50:42;;;;;;;5.63;4.80;;;16.30;1.00;;;;;;6184886;28;20243;-55
2022/05/14 06:53:45;;;;;;;11.67;5.20;;;16.10;1.00;;;;;;6190648;28;20239;-56
2022/05/14 06:56:48;;;;;;;12.47;5.13;;;16.00;1.00;;;;;;6180228;28;20381;-55
2022/05/14 06:59:51;;;;;;;5.83;4.83;;;16.10;1.00;;;;;;6188960;28;20243;-55
2022/05/14 07:06:37;;;;;;;6.80;4.77;;;16.30;1.00;;;;;;6186467;28;20737;-55
2022/05/14 07:09:40;;;;;;;4.87;4.43;;;16.70;1.00;;;;;;6188423;28;20243;-56
2022/05/14 07:12:42;;;;;;;4.83;4.23;;;16.70;1.00;;;;;;6195883;28;21094;-55
2022/05/14 07:15:45;;;;;;;7.30;4.80;;;16.50;1.00;;;;;;6180985;28;20574;-55
2022/05/14 07:18:48;;;;;;;8.53;5.00;;;16.50;1.00;;;;;;6187828;28;20763;-55
2022/05/14 07:21:54;;;;;;;5.97;4.30;;;16.60;1.00;;;;;;6182391;28;20242;-54
2022/05/14 07:24:57;;;;;;;8.40;4.30;;;16.70;1.00;;;;;;6195575;28;20689;-56
2022/05/14 07:28:00;;;;;;;7.33;4.93;;;16.80;1.00;;;;;;6184581;28;20247;-56
2022/05/14 07:31:04;;;;;;;7.23;4.63;;;16.90;1.00;;;;;;6187968;28;20789;-55
2022/05/14 07:34:07;;;;;;;6.53;5.00;;;17.00;1.00;;;;;;6185420;28;20267;-55
2022/05/14 07:37:16;;;;;;;9.10;4.57;;;17.00;1.00;;;;;;6184282;28;20333;-54
2022/05/14 07:40:23;;;;;;;6.43;4.57;;;17.00;1.00;;;;;;6188082;28;20383;-55
2022/05/14 07:43:30;;;;;;;5.50;4.67;;;17.10;1.00;;;;;;6191277;28;20636;-54
2022/05/14 07:46:36;;;;;;;5.53;4.90;;;17.40;1.00;;;;;;6183854;28;20636;-55
2022/05/14 07:49:42;;;;;;;11.17;5.20;;;17.50;1.00;;;;;;6185439;28;20239;-55
2022/05/14 07:52:46;;;;;;;5.67;4.67;;;17.60;1.00;;;;;;6190764;28;20235;-55
2022/05/14 07:55:49;;;;;;;10.50;4.73;;;17.60;1.00;;;;;;6193514;28;20383;-56
2022/05/14 07:58:56;;;;;;;7.30;5.37;;;17.70;1.00;;;;;;6188828;28;20326;-55
2022/05/14 08:01:59;;;;;;;12.13;5.33;;;17.80;1.00;;;;;;6173477;28;20246;-54
2022/05/14 08:05:03;;;;;;;8.73;4.83;;;17.90;1.00;;;;;;6193471;28;20542;-53
2022/05/14 08:08:09;;;;;;;12.73;5.20;;;18.10;1.00;;;;;;6191896;28;20295;-55
2022/05/14 08:11:12;;;;;;;15.87;5.00;;;18.30;1.00;;;;;;6188440;28;20615;-54
2022/05/14 08:14:15;;;;;;;9.40;5.03;;;18.30;1.00;;;;;;6189437;28;20310;-55
2022/05/14 08:17:18;;;;;;;7.80;4.57;;;18.50;1.00;;;;;;6185930;28;20255;-56
2022/05/14 08:20:21;;;;;;;11.07;4.90;;;18.60;1.00;;;;;;6184533;28;20476;-56
2022/05/14 08:26:49;;;;;;;11.50;4.57;;;18.50;1.00;;;;;;6187777;28;20251;-55
2022/05/14 08:29:52;;;;;;;6.73;4.53;;;18.50;1.00;;;;;;6186252;28;20306;-55
2022/05/14 08:32:55;;;;;;;7.17;5.20;;;18.50;1.00;;;;;;6191530;28;20251;-54
2022/05/14 08:35:57;;;;;;;7.53;4.33;;;18.50;1.00;;;;;;6181031;28;20252;-54
2022/05/14 08:39:03;;;;;;;7.13;4.57;;;18.50;1.00;;;;;;6196620;28;20812;-56
2022/05/14 08:42:09;;;;;;;11.23;5.00;;;18.60;1.00;;;;;;6186165;28;20323;-55
2022/05/14 08:45:15;;;;;;;23.63;9.43;;;18.80;1.00;;;;;;6193651;28;20298;-54
2022/05/14 08:48:25;;;;;;;10.97;4.93;;;18.90;1.00;;;;;;6181610;28;20231;-54
2022/05/14 08:51:32;;;;;;;14.10;4.90;;;19.00;1.00;;;;;;6186451;28;20324;-56
2022/05/14 08:54:36;;;;;;;13.67;5.23;;;19.00;1.00;;;;;;6192587;28;20488;-55
2022/05/14 08:57:49;;;;;;;8.23;4.50;;;18.90;1.00;;;;;;6186184;28;20456;-55
2022/05/14 09:00:52;;;;;;;9.93;4.67;;;19.00;1.00;;;;;;6184405;28;20369;-56
2022/05/14 09:03:55;;;;;;;9.20;4.53;;;19.10;1.00;;;;;;6188553;28;20236;-54
2022/05/14 09:06:58;;;;;;;8.03;4.60;;;19.20;1.00;;;;;;6190407;28;20249;-54
2022/05/14 09:10:05;;;;;;;11.57;4.90;;;19.40;1.00;;;;;;6198010;28;20281;-54
2022/05/14 09:13:14;;;;;;;9.37;4.87;;;19.30;1.00;;;;;;6176662;28;20368;-54
2022/05/14 09:16:26;;;;;;;10.10;4.20;;;19.20;1.00;;;;;;6198377;28;20713;-54
2022/05/14 09:19:34;;;;;;;8.67;4.80;;;19.10;1.00;;;;;;6184306;28;20793;-55
2022/05/14 09:22:43;;;;;;;7.03;4.53;;;19.00;1.00;;;;;;6188960;28;20421;-53
2022/05/14 09:25:47;;;;;;;7.43;4.40;;;19.00;1.00;;;;;;6190653;28;20394;-54
2022/05/14 09:28:52;;;;;;;13.40;5.10;;;19.30;1.00;;;;;;6183048;28;20236;-56
2022/05/14 09:31:59;;;;;;;9.87;4.40;;;19.40;1.00;;;;;;6186945;28;20824;-54
2022/05/14 09:35:12;;;;;;;6.60;4.07;;;19.60;1.00;;;;;;6183394;28;20752;-53
2022/05/14 09:38:25;;;;;;;10.30;4.60;;;19.50;1.00;;;;;;6191764;28;20319;-53
2022/05/14 09:41:29;;;;;;;13.37;4.00;;;19.50;1.00;;;;;;6187058;28;20293;-54
2022/05/14 09:44:45;;;;;;;10.57;3.73;;;19.50;1.00;;;;;;6191411;28;20338;-55
2022/05/14 09:47:48;;;;;;;7.97;4.10;;;19.40;1.00;;;;;;6188362;28;20248;-53
2022/05/14 09:50:56;;;;;;;8.07;4.07;;;19.50;1.00;;;;;;6187751;28;20324;-54
2022/05/14 09:54:10;;;;;;;8.33;3.60;;;19.60;1.00;;;;;;6188097;28;20457;-56
2022/05/14 09:57:41;;;;;;;4.67;3.80;;;20.00;1.00;;;;;;6191380;28;20228;-55
2022/05/14 10:00:58;;;;;;;8.27;4.00;;;20.30;1.00;;;;;;6198043;28;20349;-55
2022/05/14 10:04:15;;;;;;;8.60;4.27;;;20.50;1.00;;;;;;6194622;28;20247;-55
2022/05/14 10:07:22;;;;;;;7.53;4.07;;;20.20;1.00;;;;;;6180258;28;20263;-55
2022/05/14 10:10:38;;;;;;;9.80;4.30;;;19.90;1.00;;;;;;6190762;28;20289;-55
2022/05/14 10:13:50;;;;;;;6.23;4.17;;;19.90;1.00;;;;;;6189822;28;20239;-56
2022/05/14 10:17:07;;;;;;;8.60;4.20;;;19.90;1.00;;;;;;6188578;28;20557;-55
2022/05/14 10:20:35;;;;;;;5.90;4.00;;;19.80;1.00;;;;;;6191613;28;20573;-56
2022/05/14 10:27:43;;;;;;;6.80;4.07;;;19.90;1.00;;;;;;6180169;28;20518;-55
2022/05/14 10:30:55;;;;;;;7.63;4.10;;;19.80;1.00;;;;;;6185724;28;20305;-54
2022/05/14 10:34:06;;;;;;;9.77;4.00;;;19.80;1.00;;;;;;6178244;28;20236;-56
2022/05/14 10:37:17;;;;;;;5.17;3.70;;;19.90;1.00;;;;;;6190210;28;20235;-55
2022/05/14 10:40:25;;;;;;;8.47;4.03;;;20.20;1.00;;;;;;6192613;28;20224;-56
2022/05/14 10:43:49;;;;;;;9.60;4.07;;;20.40;1.00;;;;;;6184524;28;20316;-55
2022/05/14 10:46:54;;;;;;;6.90;3.90;;;20.60;1.00;;;;;;6183227;28;20303;-56
2022/05/14 10:50:04;;;;;;;6.57;3.67;;;20.90;1.00;;;;;;6182758;28;20503;-55
2022/05/14 10:53:08;;;;;;;12.47;4.00;;;20.80;1.00;;;;;;6194058;28;20402;-54
2022/05/14 10:56:14;;;;;;;9.63;3.80;;;20.70;1.00;;;;;;6188457;28;20352;-56
2022/05/14 10:59:32;;;;;;;8.17;4.10;;;20.60;1.00;;;;;;6177506;28;20375;-55
2022/05/14 11:02:51;;;;;;;9.30;4.30;;;20.70;1.00;;;;;;6183744;28;20305;-55
2022/05/14 11:06:07;;;;;;;10.47;4.23;;;20.90;1.00;;;;;;6166652;28;20250;-51
2022/05/14 11:09:17;;;;;;;9.00;4.40;;;21.10;1.00;;;;;;6191114;28;20452;-54
2022/05/14 11:12:33;;;;;;;5.67;4.10;;;21.20;1.00;;;;;;6186776;28;20429;-54
2022/05/14 11:15:36;;;;;;;5.50;3.73;;;21.40;1.00;;;;;;6182864;28;20423;-56
2022/05/14 11:18:49;;;;;;;9.73;4.67;;;21.60;1.00;;;;;;6183429;28;20248;-55
2022/05/14 11:21:54;;;;;;;12.43;4.63;;;21.70;1.00;;;;;;6185110;28;20239;-56
2022/05/14 11:24:58;;;;;;;7.17;4.20;;;21.70;1.00;;;;;;6188729;28;20280;-55
2022/05/14 11:28:05;;;;;;;11.10;4.00;;;21.70;1.00;;;;;;6180610;28;20589;-54
2022/05/14 11:31:19;;;;;;;8.93;4.53;;;21.40;1.00;;;;;;6177575;28;20348;-55
2022/05/14 11:34:25;;;;;;;10.63;5.07;;;21.10;1.00;;;;;;6181931;28;20267;-55
2022/05/14 11:37:32;;;;;;;6.57;3.97;;;20.90;1.00;;;;;;6193318;28;20817;-56
2022/05/14 11:40:35;;;;;;;9.80;4.30;;;20.80;1.00;;;;;;6187618;28;20247;-55
2022/05/14 11:43:49;;;;;;;12.03;4.13;;;20.70;1.00;;;;;;6187711;28;20362;-54
2022/05/14 11:46:52;;;;;;;11.87;4.30;;;20.70;1.00;;;;;;6159619;28;20278;-55
2022/05/14 11:49:57;;;;;;;11.20;4.40;;;21.00;1.00;;;;;;6184945;28;20455;-56
2022/05/14 11:53:07;;;;;;;11.67;4.23;;;21.20;1.00;;;;;;6185511;28;20247;-55
2022/05/14 11:56:16;;;;;;;8.77;4.83;;;21.20;1.00;;;;;;6195800;28;20740;-56
2022/05/14 11:59:27;;;;;;;11.97;5.10;;;21.30;1.00;;;;;;6186997;28;20236;-56
2022/05/14 12:02:37;;;;;;;5.97;3.90;;;21.30;1.00;;;;;;6196000;28;20236;-54
2022/05/14 12:05:54;;;;;;;7.33;3.70;;;21.40;1.00;;;;;;6188135;28;20314;-54
2022/05/14 12:09:08;;;;;;;8.57;4.53;;;21.50;1.00;;;;;;6192165;28;20321;-54
2022/05/14 12:12:17;;;;;;;7.10;4.40;;;21.60;1.00;;;;;;6193461;28;20232;-56
2022/05/14 12:15:24;;;;;;;10.03;4.50;;;21.80;1.00;;;;;;6183251;28;20240;-55
2022/05/14 12:18:31;;;;;;;6.50;4.47;;;21.70;1.00;;;;;;6194639;28;20567;-55
2022/05/14 12:21:35;;;;;;;7.73;4.17;;;21.80;1.00;;;;;;6188965;28;20323;-54
2022/05/14 12:24:52;;;;;;;7.53;4.33;;;21.70;1.00;;;;;;6197787;28;20244;-53
2022/05/14 12:27:55;;;;;;;6.23;4.20;;;21.70;1.00;;;;;;6187908;28;20252;-54
2022/05/14 12:34:34;;;;;;;7.37;4.87;;;21.30;1.00;;;;;;6179075;28;20247;-55
2022/05/14 12:37:42;;;;;;;5.87;4.53;;;21.30;1.00;;;;;;6178622;28;20275;-56
2022/05/14 12:40:46;;;;;;;11.40;4.33;;;21.30;1.00;;;;;;6188827;28;20315;-55
2022/05/14 12:43:49;;;;;;;7.00;4.50;;;21.30;1.00;;;;;;6188093;28;20266;-55
2022/05/14 12:46:55;;;;;;;9.87;4.60;;;21.30;1.00;;;;;;6182798;28;20929;-54
2022/05/14 12:50:01;;;;;;;8.53;4.03;;;21.30;1.00;;;;;;6179671;28;20239;-56
2022/05/14 12:53:07;;;;;;;13.07;4.30;;;21.50;1.00;;;;;;6188861;28;20246;-53
2022/05/14 12:56:11;;;;;;;6.60;5.00;;;21.20;1.00;;;;;;6173032;28;20509;-55
2022/05/14 12:59:14;;;;;;;8.93;4.27;;;21.00;1.00;;;;;;6180648;28;20239;-55
2022/05/14 13:02:21;;;;;;;8.00;4.50;;;21.10;1.00;;;;;;6186166;28;20231;-55
2022/05/14 13:05:36;;;;;;;10.80;4.63;;;21.20;1.00;;;;;;6181512;28;20232;-54
2022/05/14 13:08:47;;;;;;;9.90;4.43;;;21.30;1.00;;;;;;6187285;28;21851;-55
2022/05/14 13:11:52;;;;;;;10.80;5.07;;;21.20;1.00;;;;;;6151585;28;20287;-54
2022/05/14 13:14:57;;;;;;;13.70;4.73;;;21.30;1.00;;;;;;6176901;28;20368;-55
2022/05/14 13:18:12;;;;;;;8.90;4.60;;;21.40;1.00;;;;;;6182624;28;20318;-55
2022/05/14 13:21:18;;;;;;;12.47;4.97;;;21.30;1.00;;;;;;6187914;28;20593;-55
2022/05/14 13:24:25;;;;;;;11.73;4.43;;;21.20;1.00;;;;;;6185769;28;20318;-55
2022/05/14 13:27:31;;;;;;;4.87;4.10;;;21.10;1.00;;;;;;6190462;28;20647;-54
2022/05/14 13:30:35;;;;;;;8.23;4.43;;;21.30;1.00;;;;;;6188997;28;20314;-54
2022/05/14 13:33:39;;;;;;;9.70;4.60;;;21.40;1.00;;;;;;6182442;28;20628;-54
2022/05/14 13:40:16;;;;;;;9.90;4.73;;;21.40;1.00;;;;;;6187090;28;20279;-55
2022/05/14 13:43:28;;;;;;;8.43;4.47;;;21.30;1.00;;;;;;6183760;28;20233;-53
2022/05/14 13:46:34;;;;;;;9.43;4.90;;;21.40;1.00;;;;;;6184868;28;20286;-55
2022/05/14 13:49:41;;;;;;;11.43;5.47;;;21.20;1.00;;;;;;6181448;28;20352;-55
2022/05/14 13:52:52;;;;;;;10.13;4.90;;;21.30;1.00;;;;;;6187208;28;20383;-54
2022/05/14 13:56:04;;;;;;;7.33;4.37;;;21.40;1.00;;;;;;6178720;28;20732;-54
2022/05/14 13:59:09;;;;;;;9.83;4.50;;;21.40;1.00;;;;;;6190774;28;20236;-55
2022/05/14 14:02:25;;;;;;;7.10;4.27;;;21.40;1.00;;;;;;6179607;28;20347;-54
2022/05/14 14:05:30;;;;;;;6.07;4.27;;;21.40;1.00;;;;;;6174018;28;20236;-52
2022/05/14 14:08:33;;;;;;;11.23;4.70;;;21.50;1.00;;;;;;6181174;28;20395;-54
2022/05/14 14:11:41;;;;;;;8.03;4.37;;;21.50;1.00;;;;;;6190756;28;20628;-54
2022/05/14 14:14:44;;;;;;;10.03;5.13;;;21.60;1.00;;;;;;6190816;28;20566;-54
2022/05/14 14:17:48;;;;;;;9.97;4.13;;;21.60;1.00;;;;;;6186881;28;20334;-54
2022/05/14 14:20:54;;;;;;;7.67;4.40;;;21.70;1.00;;;;;;6191671;28;20560;-53
2022/05/14 14:23:59;;;;;;;9.20;4.70;;;21.80;1.00;;;;;;6191886;28;20476;-54
2022/05/14 14:27:05;;;;;;;11.57;5.03;;;21.90;1.00;;;;;;6190982;28;20244;-54
2022/05/14 14:30:10;;;;;;;7.00;4.23;;;22.10;1.00;;;;;;6196385;28;20762;-54
2022/05/14 14:33:14;;;;;;;13.33;4.97;;;22.10;1.00;;;;;;6183394;28;20240;-54
2022/05/14 14:36:17;;;;;;;8.63;4.90;;;22.10;1.00;;;;;;6179801;28;20355;-53
2022/05/14 14:39:20;;;;;;;9.70;4.67;;;21.90;1.00;;;;;;6182209;28;20385;-54
2022/05/14 14:42:28;;;;;;;17.17;5.10;;;21.70;1.00;;;;;;6176209;28;20649;-50
2022/05/14 14:45:33;;;;;;;9.23;4.33;;;21.60;1.00;;;;;;6185704;28;20236;-54
2022/05/14 14:48:39;;;;;;;9.60;4.60;;;21.50;1.00;;;;;;6187359;28;20326;-54
2022/05/14 14:51:43;;;;;;;9.43;4.63;;;21.60;1.00;;;;;;6190532;28;20306;-54
2022/05/14 14:54:45;;;;;;;9.27;4.70;;;21.70;1.00;;;;;;6199940;28;20994;-53
2022/05/14 14:57:51;;;;;;;9.77;4.60;;;21.80;1.00;;;;;;6182031;28;20257;-55
2022/05/14 15:00:54;;;;;;;9.20;4.97;;;21.90;1.00;;;;;;6185336;28;20314;-55
2022/05/14 15:04:05;;;;;;;8.03;4.53;;;21.80;1.00;;;;;;6176424;28;20267;-53
2022/05/14 15:07:08;;;;;;;8.00;5.07;;;21.80;1.00;;;;;;6190146;28;20251;-53
2022/05/14 15:10:13;;;;;;;10.23;4.40;;;21.70;1.00;;;;;;6190718;28;20287;-54
2022/05/14 15:13:22;;;;;;;9.53;4.97;;;21.50;1.00;;;;;;6182596;28;20658;-54
2022/05/14 15:16:25;;;;;;;9.50;4.47;;;21.50;1.00;;;;;;6189014;28;20575;-54
2022/05/14 15:19:28;;;;;;;11.73;4.83;;;21.50;1.00;;;;;;6196758;28;20242;-54
2022/05/14 15:22:31;;;;;;;7.57;4.73;;;21.50;1.00;;;;;;6195810;28;20588;-55
2022/05/14 15:25:34;;;;;;;11.70;4.90;;;21.60;1.00;;;;;;6194958;28;20243;-56
2022/05/14 15:28:40;;;;;;;5.80;4.33;;;21.70;1.00;;;;;;6175628;28;20499;-55
2022/05/14 15:32:00;;;;;;;11.20;4.57;;;21.80;1.00;;;;;;6184813;28;20307;-56
2022/05/14 15:35:05;;;;;;;8.37;4.33;;;21.80;1.00;;;;;;6173443;28;20237;-56
2022/05/14 15:38:10;;;;;;;8.83;4.40;;;21.60;1.00;;;;;;6192317;28;20239;-55
2022/05/14 15:41:13;;;;;;;11.23;5.47;;;21.50;1.00;;;;;;6193507;28;20844;-55
2022/05/14 15:44:20;;;;;;;9.67;7.90;;;21.50;1.00;;;;;;6189615;28;20232;-55
2022/05/14 15:47:28;;;;;;;9.17;4.63;;;21.50;1.00;;;;;;6192171;28;20740;-55
2022/05/14 15:50:33;;;;;;;11.90;5.07;;;21.70;1.00;;;;;;6192244;28;25272;-56
2022/05/14 15:53:36;;;;;;;8.23;4.20;;;21.70;1.00;;;;;;6184848;28;20438;-55
2022/05/14 15:56:44;;;;;;;11.03;4.50;;;21.50;1.00;;;;;;6186529;28;20264;-56
2022/05/14 15:59:48;;;;;;;5.30;4.47;;;21.40;1.00;;;;;;6191134;28;20236;-55
2022/05/14 16:02:53;;;;;;;9.93;4.47;;;21.30;1.00;;;;;;6192958;28;20279;-53
2022/05/14 16:05:56;;;;;;;7.53;4.47;;;21.20;1.00;;;;;;6184125;28;20310;-54
2022/05/14 16:08:59;;;;;;;10.13;4.50;;;21.20;1.00;;;;;;6199132;28;20281;-54
2022/05/14 16:18:48;;;;;;;11.20;6.43;;;20.90;1.00;;;;;;6204393;28;20731;-54
2022/05/14 16:21:51;;;;;;;14.10;8.13;;;20.80;1.00;;;;;;6189891;28;20313;-55
2022/05/14 16:24:54;;;;;;;9.83;7.17;;;20.90;1.00;;;;;;6193963;28;21877;-54
2022/05/14 16:27:57;;;;;;;8.60;4.73;;;21.00;1.00;;;;;;6187986;28;20338;-54
2022/05/14 16:31:02;;;;;;;9.63;4.43;;;21.00;1.00;;;;;;6180602;28;20244;-54
2022/05/14 16:34:05;;;;;;;10.17;4.00;;;21.10;1.00;;;;;;6186540;28;20319;-56
2022/05/14 16:37:08;;;;;;;17.53;13.47;;;21.20;1.00;;;;;;6182298;28;20235;-54
2022/05/14 16:40:12;;;;;;;8.63;4.30;;;21.20;1.00;;;;;;6184981;28;20369;-54
2022/05/14 16:43:15;;;;;;;10.93;5.53;;;21.30;1.00;;;;;;6191613;28;20228;-54
2022/05/14 16:46:19;;;;;;;7.40;5.80;;;21.10;1.00;;;;;;6187991;28;20316;-55
2022/05/14 16:49:22;;;;;;;9.67;6.37;;;21.00;1.00;;;;;;6188160;28;20272;-54